Time;durP1;ratioP1;P1;durP2;ratioP2;P2;SDS_P1;SDS_P2;PMS_P1;PMS_P2;Temp;Humidity;BMP_temperature;BMP_pressure;BME280_temperature;BME280_humidity;BME280_pressure;Samples;Min_cycle;Max_cycle;Signal;HPM_P1;HPM_P2
2023/06/27 00:01:39;;;;;;;3.22;1.90;;;;;;;;;;4987019;28;20030;-63
2023/06/27 00:04:05;;;;;;;5.60;2.22;;;;;;;;;;4993459;28;20096;-62
2023/06/27 00:06:31;;;;;;;6.65;2.30;;;;;;;;;;4990915;28;20470;-61
2023/06/27 00:08:56;;;;;;;8.50;2.10;;;;;;;;;;4992398;28;20113;-61
2023/06/27 00:11:21;;;;;;;3.88;2.03;;;;;;;;;;4990704;28;20042;-67
2023/06/27 00:13:49;;;;;;;6.22;2.17;;;;;;;;;;4991686;28;20040;-62
2023/06/27 00:16:14;;;;;;;5.50;2.35;;;;;;;;;;4991302;28;20039;-61
2023/06/27 00:18:42;;;;;;;5.78;2.20;;;;;;;;;;4990754;28;20097;-61
2023/06/27 00:21:07;;;;;;;4.70;2.20;;;;;;;;;;4990733;28;20069;-62
2023/06/27 00:23:33;;;;;;;6.97;2.28;;;;;;;;;;4991246;28;20069;-61
2023/06/27 00:26:03;;;;;;;4.40;2.20;;;;;;;;;;4991077;28;20038;-61
2023/06/27 00:28:29;;;;;;;5.60;2.20;;;;;;;;;;4991453;28;20034;-61
2023/06/27 00:30:55;;;;;;;4.95;2.40;;;;;;;;;;4986184;28;20105;-61
2023/06/27 00:33:20;;;;;;;5.68;2.70;;;;;;;;;;4991306;28;20113;-67
2023/06/27 00:35:46;;;;;;;5.80;2.60;;;;;;;;;;4989796;28;20072;-62
2023/06/27 00:38:11;;;;;;;4.82;2.60;;;;;;;;;;4991991;28;20022;-61
2023/06/27 00:40:37;;;;;;;3.97;2.47;;;;;;;;;;4989740;28;20026;-61
2023/06/27 00:43:02;;;;;;;4.05;2.58;;;;;;;;;;4991442;28;20181;-61
2023/06/27 00:45:27;;;;;;;6.88;2.72;;;;;;;;;;4989812;28;20049;-61
2023/06/27 00:47:53;;;;;;;4.43;2.33;;;;;;;;;;4992018;28;20031;-61
2023/06/27 00:50:22;;;;;;;6.22;2.80;;;;;;;;;;4991238;28;20038;-61
2023/06/27 00:52:48;;;;;;;5.22;2.50;;;;;;;;;;4991705;28;20046;-61
2023/06/27 00:55:13;;;;;;;4.97;2.35;;;;;;;;;;4991274;28;20034;-61
2023/06/27 00:57:40;;;;;;;4.45;2.53;;;;;;;;;;4987028;28;20034;-64
2023/06/27 01:00:09;;;;;;;3.55;2.25;;;;;;;;;;4989555;28;20132;-61
2023/06/27 01:02:35;;;;;;;4.88;2.40;;;;;;;;;;4993290;28;20030;-61
2023/06/27 01:05:01;;;;;;;5.55;2.58;;;;;;;;;;4994521;28;20049;-62
2023/06/27 01:07:34;;;;;;;7.47;2.60;;;;;;;;;;4994697;28;20022;-61
2023/06/27 01:10:28;;;;;;;5.05;2.53;;;;;;;;;;4994857;28;20042;-61
2023/06/27 01:13:06;;;;;;;4.90;2.70;;;;;;;;;;4993508;28;20038;-61
2023/06/27 01:15:33;;;;;;;6.05;2.67;;;;;;;;;;4993786;28;20034;-60
2023/06/27 01:17:59;;;;;;;7.10;2.90;;;;;;;;;;4994177;28;20034;-60
2023/06/27 01:20:25;;;;;;;5.63;2.80;;;;;;;;;;4991921;28;20065;-67
2023/06/27 01:23:05;;;;;;;4.13;2.60;;;;;;;;;;4994732;28;20030;-62
2023/06/27 01:25:31;;;;;;;5.85;3.03;;;;;;;;;;4985260;28;20045;-62
2023/06/27 01:27:56;;;;;;;5.40;2.80;;;;;;;;;;4994986;28;20061;-61
2023/06/27 01:30:22;;;;;;;4.53;2.85;;;;;;;;;;4993698;28;20054;-62
2023/06/27 01:33:05;;;;;;;4.50;2.58;;;;;;;;;;4994239;28;20034;-61
2023/06/27 01:35:43;;;;;;;5.57;2.95;;;;;;;;;;4991477;28;20443;-61
2023/06/27 01:38:30;;;;;;;4.85;2.72;;;;;;;;;;4989552;28;20030;-61
2023/06/27 01:40:57;;;;;;;5.45;2.70;;;;;;;;;;4993538;28;20108;-61
2023/06/27 01:43:23;;;;;;;4.15;2.55;;;;;;;;;;4992621;28;20038;-61
2023/06/27 01:45:49;;;;;;;5.38;2.72;;;;;;;;;;4993974;28;20042;-61
2023/06/27 01:48:15;;;;;;;7.68;3.30;;;;;;;;;;4994063;28;20038;-60
2023/06/27 01:50:41;;;;;;;4.55;2.80;;;;;;;;;;4991753;28;20046;-62
2023/06/27 01:53:06;;;;;;;7.30;3.03;;;;;;;;;;4994424;28;20127;-61
2023/06/27 01:55:32;;;;;;;5.80;3.17;;;;;;;;;;4996445;28;20076;-61
2023/06/27 01:57:58;;;;;;;5.47;2.78;;;;;;;;;;5005983;28;20034;-61
2023/06/27 02:00:24;;;;;;;5.80;3.08;;;;;;;;;;4994555;28;20042;-60
2023/06/27 02:02:50;;;;;;;5.20;3.00;;;;;;;;;;4990346;28;20050;-61
2023/06/27 02:05:16;;;;;;;7.80;3.22;;;;;;;;;;4994318;28;20065;-61
2023/06/27 02:07:41;;;;;;;5.90;3.00;;;;;;;;;;4993538;28;20041;-61
2023/06/27 02:10:07;;;;;;;5.97;3.13;;;;;;;;;;4994474;28;20027;-61
2023/06/27 02:12:32;;;;;;;6.55;3.20;;;;;;;;;;4993412;28;20069;-61
2023/06/27 02:14:58;;;;;;;5.45;3.13;;;;;;;;;;4993459;28;20039;-61
2023/06/27 02:17:23;;;;;;;7.05;3.55;;;;;;;;;;4993697;28;20042;-61
2023/06/27 02:19:49;;;;;;;4.63;3.08;;;;;;;;;;4990769;28;20041;-61
2023/06/27 02:22:14;;;;;;;5.75;2.90;;;;;;;;;;4994435;28;20033;-61
2023/06/27 02:24:39;;;;;;;7.45;3.22;;;;;;;;;;4991832;28;20035;-63
2023/06/27 02:27:05;;;;;;;7.43;3.17;;;;;;;;;;4989503;28;20029;-61
2023/06/27 02:29:30;;;;;;;5.72;3.28;;;;;;;;;;4984964;28;20052;-67
2023/06/27 02:31:56;;;;;;;6.07;3.30;;;;;;;;;;4994086;28;20026;-61
2023/06/27 02:34:21;;;;;;;9.13;3.50;;;;;;;;;;4993814;28;20049;-61
2023/06/27 02:36:47;;;;;;;6.60;3.55;;;;;;;;;;4991667;28;20026;-61
2023/06/27 02:39:12;;;;;;;5.50;3.17;;;;;;;;;;4993831;28;20427;-62
2023/06/27 02:41:37;;;;;;;8.63;3.58;;;;;;;;;;4992582;28;20046;-64
2023/06/27 02:44:03;;;;;;;11.15;3.80;;;;;;;;;;4993704;28;20037;-61
2023/06/27 02:46:28;;;;;;;6.95;3.85;;;;;;;;;;4991742;28;20042;-67
2023/06/27 02:48:54;;;;;;;6.60;3.53;;;;;;;;;;4993103;28;20113;-61
2023/06/27 02:51:21;;;;;;;8.77;4.18;;;;;;;;;;4993264;28;20116;-61
2023/06/27 02:53:47;;;;;;;5.20;3.45;;;;;;;;;;4991312;28;20042;-61
2023/06/27 02:56:12;;;;;;;6.13;3.45;;;;;;;;;;4991059;28;20464;-61
2023/06/27 02:58:39;;;;;;;9.15;3.75;;;;;;;;;;4992356;28;20030;-61
2023/06/27 03:01:06;;;;;;;8.95;3.80;;;;;;;;;;4993282;28;20451;-61
2023/06/27 03:03:34;;;;;;;7.25;3.55;;;;;;;;;;4986665;28;20393;-67
2023/06/27 03:06:03;;;;;;;6.80;3.65;;;;;;;;;;4992921;28;20368;-61
2023/06/27 03:08:30;;;;;;;7.18;3.63;;;;;;;;;;4992932;28;20042;-67
2023/06/27 03:10:56;;;;;;;7.95;3.50;;;;;;;;;;4991552;28;20042;-61
2023/06/27 03:13:21;;;;;;;7.13;3.70;;;;;;;;;;4993141;28;20092;-61
2023/06/27 03:15:47;;;;;;;8.38;3.72;;;;;;;;;;4989053;28;20030;-61
2023/06/27 03:18:12;;;;;;;7.82;3.65;;;;;;;;;;4993022;28;20529;-61
2023/06/27 03:20:37;;;;;;;8.70;3.88;;;;;;;;;;4991563;28;20152;-63
2023/06/27 03:23:03;;;;;;;8.18;4.00;;;;;;;;;;4992944;28;20034;-61
2023/06/27 03:25:28;;;;;;;10.75;4.10;;;;;;;;;;4990986;28;20069;-63
2023/06/27 03:27:54;;;;;;;10.43;4.07;;;;;;;;;;4990710;28;20463;-62
2023/06/27 03:30:20;;;;;;;7.53;4.03;;;;;;;;;;4991405;28;20042;-62
2023/06/27 03:32:45;;;;;;;7.50;4.00;;;;;;;;;;4971977;28;20206;-63
2023/06/27 03:35:10;;;;;;;7.63;4.07;;;;;;;;;;4987641;28;20613;-62
2023/06/27 03:37:36;;;;;;;7.18;4.32;;;;;;;;;;4988229;28;20034;-63
2023/06/27 03:40:02;;;;;;;10.75;4.65;;;;;;;;;;4992538;28;20030;-61
2023/06/27 03:42:28;;;;;;;8.32;4.30;;;;;;;;;;4992189;28;20065;-61
2023/06/27 03:44:53;;;;;;;6.60;4.10;;;;;;;;;;4991570;28;20026;-62
2023/06/27 03:47:19;;;;;;;9.27;4.30;;;;;;;;;;4992479;28;20034;-62
2023/06/27 03:49:44;;;;;;;9.23;4.68;;;;;;;;;;4991711;28;20031;-62
2023/06/27 03:52:10;;;;;;;7.45;4.40;;;;;;;;;;4989034;28;20030;-62
2023/06/27 03:54:35;;;;;;;9.77;4.70;;;;;;;;;;4992184;28;20034;-68
2023/06/27 03:57:01;;;;;;;10.18;4.28;;;;;;;;;;4992950;28;20153;-62
2023/06/27 03:59:26;;;;;;;7.95;4.43;;;;;;;;;;4993003;28;20053;-63
2023/06/27 04:01:51;;;;;;;8.35;4.20;;;;;;;;;;4990263;28;20425;-62
2023/06/27 04:04:17;;;;;;;9.98;4.63;;;;;;;;;;4990196;28;20394;-61
2023/06/27 04:06:42;;;;;;;8.05;4.55;;;;;;;;;;4990562;28;20026;-64
2023/06/27 04:09:08;;;;;;;9.20;4.70;;;;;;;;;;4991540;28;20039;-61
2023/06/27 04:11:33;;;;;;;7.85;4.30;;;;;;;;;;4992367;28;20393;-67
2023/06/27 04:13:59;;;;;;;8.85;4.47;;;;;;;;;;4994258;28;20049;-61
2023/06/27 04:16:25;;;;;;;11.43;4.85;;;;;;;;;;4996167;28;20101;-62
2023/06/27 04:18:50;;;;;;;9.88;4.95;;;;;;;;;;4995470;28;20109;-61
2023/06/27 04:21:16;;;;;;;11.38;4.70;;;;;;;;;;4996067;28;20061;-61
2023/06/27 04:23:41;;;;;;;10.45;4.47;;;;;;;;;;4995147;28;20048;-62
2023/06/27 04:26:08;;;;;;;7.78;4.60;;;;;;;;;;4996031;28;20035;-61
2023/06/27 04:28:34;;;;;;;11.38;5.10;;;;;;;;;;4992720;28;20033;-69
2023/06/27 04:31:00;;;;;;;11.50;4.75;;;;;;;;;;4991922;28;20034;-62
2023/06/27 04:33:30;;;;;;;10.30;4.47;;;;;;;;;;4990868;28;20026;-62
2023/06/27 04:36:00;;;;;;;9.88;4.97;;;;;;;;;;4989737;28;20073;-62
2023/06/27 04:38:30;;;;;;;8.43;4.65;;;;;;;;;;4994613;28;20069;-62
2023/06/27 04:40:55;;;;;;;12.40;5.00;;;;;;;;;;4995072;28;20205;-62
2023/06/27 04:43:21;;;;;;;10.50;5.20;;;;;;;;;;4996204;28;20455;-61
2023/06/27 04:45:46;;;;;;;8.57;5.05;;;;;;;;;;4993990;28;20077;-61
2023/06/27 04:48:12;;;;;;;12.25;5.13;;;;;;;;;;4995497;28;20038;-61
2023/06/27 04:50:37;;;;;;;9.82;4.85;;;;;;;;;;4994724;28;20033;-67
2023/06/27 04:53:05;;;;;;;8.77;4.25;;;;;;;;;;4993313;28;20038;-61
2023/06/27 04:55:32;;;;;;;10.75;5.40;;;;;;;;;;4994529;28;20057;-61
2023/06/27 04:57:57;;;;;;;11.50;4.90;;;;;;;;;;4984509;28;20694;-63
2023/06/27 05:00:23;;;;;;;9.65;4.68;;;;;;;;;;4994697;28;20054;-62
2023/06/27 05:02:48;;;;;;;14.63;5.22;;;;;;;;;;4994606;28;20097;-61
2023/06/27 05:05:13;;;;;;;16.95;4.95;;;;;;;;;;4994470;28;20042;-62
2023/06/27 05:07:39;;;;;;;12.55;4.60;;;;;;;;;;4979141;28;20073;-63
2023/06/27 05:10:04;;;;;;;12.10;4.95;;;;;;;;;;4992921;28;20050;-70
2023/06/27 05:12:30;;;;;;;12.88;4.88;;;;;;;;;;4992464;28;20041;-63
2023/06/27 05:14:55;;;;;;;11.63;4.60;;;;;;;;;;4994038;28;20859;-65
2023/06/27 05:17:21;;;;;;;10.88;4.80;;;;;;;;;;4994699;28;20030;-65
2023/06/27 05:19:46;;;;;;;9.63;4.40;;;;;;;;;;4994169;28;20034;-63
2023/06/27 05:22:13;;;;;;;12.82;4.40;;;;;;;;;;4994910;28;20034;-68
2023/06/27 05:24:38;;;;;;;11.18;4.45;;;;;;;;;;4994709;28;20041;-72
2023/06/27 05:27:04;;;;;;;11.02;4.40;;;;;;;;;;4990789;28;20374;-62
2023/06/27 05:29:29;;;;;;;9.73;4.72;;;;;;;;;;4994438;28;20113;-65
2023/06/27 05:31:55;;;;;;;9.65;4.60;;;;;;;;;;5025573;28;20027;-66
2023/06/27 05:34:20;;;;;;;14.10;4.30;;;;;;;;;;4995087;28;20423;-64
2023/06/27 05:36:45;;;;;;;13.80;4.18;;;;;;;;;;4991542;28;20034;-66
2023/06/27 05:39:11;;;;;;;10.60;4.30;;;;;;;;;;4994556;28;20129;-65
2023/06/27 05:41:36;;;;;;;12.98;4.35;;;;;;;;;;4994667;28;20398;-66
2023/06/27 05:44:02;;;;;;;13.02;4.78;;;;;;;;;;4993719;28;20081;-66
2023/06/27 05:46:27;;;;;;;13.55;4.85;;;;;;;;;;4993966;28;20038;-65
2023/06/27 05:48:53;;;;;;;11.88;4.28;;;;;;;;;;4991400;28;20130;-68
2023/06/27 05:51:18;;;;;;;13.13;4.75;;;;;;;;;;4993635;28;20363;-66
2023/06/27 05:53:44;;;;;;;11.10;4.18;;;;;;;;;;4979479;28;20507;-67
2023/06/27 05:56:09;;;;;;;10.52;4.10;;;;;;;;;;4990198;28;20039;-66
2023/06/27 05:58:35;;;;;;;10.30;4.28;;;;;;;;;;4989061;28;20459;-68
2023/06/27 06:01:00;;;;;;;14.93;4.45;;;;;;;;;;4993484;28;20158;-64
2023/06/27 06:03:26;;;;;;;16.38;4.60;;;;;;;;;;4993058;28;20031;-67
2023/06/27 06:05:51;;;;;;;9.80;4.07;;;;;;;;;;4992017;28;20695;-65
2023/06/27 06:08:17;;;;;;;11.05;4.40;;;;;;;;;;4992486;28;20092;-63
2023/06/27 06:10:42;;;;;;;16.08;4.07;;;;;;;;;;4993531;28;20443;-73
2023/06/27 06:13:08;;;;;;;15.50;4.43;;;;;;;;;;4993958;28;20519;-64
2023/06/27 06:15:33;;;;;;;8.45;3.83;;;;;;;;;;4992960;28;20037;-63
2023/06/27 06:17:58;;;;;;;12.98;4.03;;;;;;;;;;4991621;28;20496;-64
2023/06/27 06:20:24;;;;;;;11.02;4.03;;;;;;;;;;4993458;28;20070;-65
2023/06/27 06:22:49;;;;;;;13.60;4.05;;;;;;;;;;4993005;28;20040;-66
2023/06/27 06:25:14;;;;;;;12.75;4.18;;;;;;;;;;4992360;28;20049;-64
2023/06/27 06:27:40;;;;;;;14.07;4.15;;;;;;;;;;4993739;28;20089;-71
2023/06/27 06:30:06;;;;;;;11.93;4.35;;;;;;;;;;4993127;28;20034;-65
2023/06/27 06:32:31;;;;;;;10.70;4.10;;;;;;;;;;4989822;28;20088;-64
2023/06/27 06:34:57;;;;;;;16.00;4.43;;;;;;;;;;4973154;28;20026;-64
2023/06/27 06:37:22;;;;;;;12.75;4.50;;;;;;;;;;4984499;28;20153;-65
2023/06/27 06:39:47;;;;;;;13.50;4.50;;;;;;;;;;4992307;28;20045;-64
2023/06/27 06:42:13;;;;;;;10.80;4.22;;;;;;;;;;4993057;28;20044;-63
2023/06/27 06:44:38;;;;;;;11.55;4.53;;;;;;;;;;4993555;28;20100;-64
2023/06/27 06:47:04;;;;;;;14.07;4.10;;;;;;;;;;4992550;28;20132;-63
2023/06/27 06:49:29;;;;;;;15.00;4.40;;;;;;;;;;4992148;28;20050;-63
2023/06/27 06:51:55;;;;;;;10.88;4.38;;;;;;;;;;4988946;28;20459;-66
2023/06/27 06:54:20;;;;;;;14.65;4.55;;;;;;;;;;4993396;28;20030;-65
2023/06/27 06:56:45;;;;;;;13.40;4.32;;;;;;;;;;4991311;28;20050;-68
2023/06/27 06:59:11;;;;;;;15.25;4.93;;;;;;;;;;4987714;28;20030;-62
2023/06/27 07:01:36;;;;;;;11.18;4.45;;;;;;;;;;4993129;28;20027;-63
2023/06/27 07:04:02;;;;;;;10.63;4.32;;;;;;;;;;4992018;28;20272;-66
2023/06/27 07:06:28;;;;;;;13.90;4.80;;;;;;;;;;4993702;28;20060;-65
2023/06/27 07:08:54;;;;;;;12.15;4.80;;;;;;;;;;4992136;28;20463;-66
2023/06/27 07:11:19;;;;;;;13.63;5.05;;;;;;;;;;4991999;28;20030;-64
2023/06/27 07:13:45;;;;;;;16.25;5.45;;;;;;;;;;4992403;28;20038;-70
2023/06/27 07:16:10;;;;;;;12.75;4.93;;;;;;;;;;4991603;28;20032;-64
2023/06/27 07:18:36;;;;;;;16.73;5.18;;;;;;;;;;4990971;28;20395;-65
2023/06/27 07:21:01;;;;;;;13.32;5.28;;;;;;;;;;4992198;28;20451;-63
2023/06/27 07:23:26;;;;;;;14.57;5.22;;;;;;;;;;4992744;28;20061;-64
2023/06/27 07:25:52;;;;;;;15.88;5.00;;;;;;;;;;4991146;28;20030;-65
2023/06/27 07:28:17;;;;;;;11.80;4.93;;;;;;;;;;4992581;28;20058;-64
2023/06/27 07:30:45;;;;;;;13.95;5.07;;;;;;;;;;4992841;28;20085;-63
2023/06/27 07:33:12;;;;;;;11.68;4.50;;;;;;;;;;4990580;28;20458;-64
2023/06/27 07:35:37;;;;;;;13.35;5.15;;;;;;;;;;4992762;28;20514;-63
2023/06/27 07:38:02;;;;;;;11.30;4.70;;;;;;;;;;5021028;28;20030;-65
2023/06/27 07:40:28;;;;;;;14.20;5.03;;;;;;;;;;4992679;28;20193;-66
2023/06/27 07:42:53;;;;;;;14.45;5.18;;;;;;;;;;4991479;28;20089;-66
2023/06/27 07:45:19;;;;;;;12.98;4.65;;;;;;;;;;4992475;28;20461;-61
2023/06/27 07:47:44;;;;;;;11.98;4.50;;;;;;;;;;4991295;28;20077;-69
2023/06/27 07:50:10;;;;;;;13.00;4.35;;;;;;;;;;4990726;28;20383;-61
2023/06/27 07:52:35;;;;;;;17.08;4.95;;;;;;;;;;4991253;28;20086;-61
2023/06/27 07:55:01;;;;;;;17.13;5.10;;;;;;;;;;4991678;28;20116;-62
2023/06/27 07:57:26;;;;;;;17.70;5.05;;;;;;;;;;4987115;28;20034;-67
2023/06/27 07:59:52;;;;;;;13.18;4.40;;;;;;;;;;4991147;28;20360;-63
2023/06/27 08:02:17;;;;;;;13.50;4.53;;;;;;;;;;4991928;28;20122;-62
2023/06/27 08:04:43;;;;;;;11.60;4.30;;;;;;;;;;4990498;28;20035;-63
2023/06/27 08:07:09;;;;;;;12.63;3.83;;;;;;;;;;4990514;28;20610;-63
2023/06/27 08:09:34;;;;;;;12.63;4.28;;;;;;;;;;4992063;28;20514;-66
2023/06/27 08:11:59;;;;;;;12.27;4.22;;;;;;;;;;4994499;28;20077;-67
2023/06/27 08:14:27;;;;;;;10.90;4.32;;;;;;;;;;4998087;28;20076;-65
2023/06/27 08:16:52;;;;;;;19.20;4.57;;;;;;;;;;4995157;28;20224;-67
2023/06/27 08:19:18;;;;;;;10.70;3.70;;;;;;;;;;4996603;28;20117;-65
2023/06/27 08:21:43;;;;;;;9.88;4.18;;;;;;;;;;4997646;28;20060;-65
2023/06/27 08:24:08;;;;;;;11.00;3.92;;;;;;;;;;4996860;28;20026;-63
2023/06/27 08:26:34;;;;;;;12.88;4.15;;;;;;;;;;4998591;28;20026;-65
2023/06/27 08:28:59;;;;;;;15.10;4.10;;;;;;;;;;4988227;28;20034;-67
2023/06/27 08:31:25;;;;;;;8.98;3.38;;;;;;;;;;4978968;28;20399;-65
2023/06/27 08:33:50;;;;;;;10.50;3.60;;;;;;;;;;4989928;28;20057;-73
2023/06/27 08:36:16;;;;;;;15.07;3.90;;;;;;;;;;4997813;28;20030;-64
2023/06/27 08:38:42;;;;;;;10.88;3.95;;;;;;;;;;4998065;28;20482;-65
2023/06/27 08:41:09;;;;;;;12.00;3.30;;;;;;;;;;4996579;28;20050;-64
2023/06/27 08:43:35;;;;;;;10.13;3.70;;;;;;;;;;4997055;28;20138;-64
2023/06/27 08:46:01;;;;;;;13.95;3.80;;;;;;;;;;4997330;28;20069;-64
2023/06/27 08:48:27;;;;;;;8.35;3.45;;;;;;;;;;4997020;28;20042;-66
2023/06/27 08:50:54;;;;;;;9.40;3.40;;;;;;;;;;4997696;28;20085;-67
2023/06/27 08:53:22;;;;;;;9.80;3.63;;;;;;;;;;4998384;28;20137;-65
2023/06/27 08:55:53;;;;;;;8.45;3.50;;;;;;;;;;4997794;28;20053;-66
2023/06/27 08:58:24;;;;;;;11.95;3.50;;;;;;;;;;4998082;28;20030;-66
2023/06/27 09:00:51;;;;;;;10.52;3.28;;;;;;;;;;4997863;28;20034;-73
2023/06/27 09:03:17;;;;;;;8.93;3.30;;;;;;;;;;4995564;28;20109;-62
2023/06/27 09:05:42;;;;;;;7.30;3.00;;;;;;;;;;4997977;28;20110;-62
2023/06/27 09:08:08;;;;;;;10.18;3.15;;;;;;;;;;4980538;28;20054;-64
2023/06/27 09:10:34;;;;;;;9.82;3.03;;;;;;;;;;4996856;28;20034;-64
2023/06/27 09:13:00;;;;;;;10.00;3.15;;;;;;;;;;4997482;28;20454;-64
2023/06/27 09:15:26;;;;;;;7.38;2.70;;;;;;;;;;4996591;28;20101;-64
2023/06/27 09:17:51;;;;;;;6.93;2.70;;;;;;;;;;4996712;28;20446;-69
2023/06/27 09:20:18;;;;;;;9.48;3.00;;;;;;;;;;4997941;28;20525;-64
2023/06/27 09:22:44;;;;;;;7.18;2.70;;;;;;;;;;4997989;28;20030;-64
2023/06/27 09:25:15;;;;;;;8.57;2.88;;;;;;;;;;4992721;28;20121;-64
2023/06/27 09:27:42;;;;;;;6.65;2.30;;;;;;;;;;4994155;28;20116;-63
2023/06/27 09:30:09;;;;;;;7.72;2.78;;;;;;;;;;4993236;28;20040;-64
2023/06/27 09:32:51;;;;;;;6.85;2.50;;;;;;;;;;5014752;28;20029;-67
2023/06/27 09:35:17;;;;;;;7.53;2.53;;;;;;;;;;4990171;28;20034;-70
2023/06/27 09:37:42;;;;;;;8.20;2.45;;;;;;;;;;4994317;28;20169;-66
2023/06/27 09:40:24;;;;;;;9.45;2.60;;;;;;;;;;4995019;28;20495;-67
2023/06/27 09:42:58;;;;;;;8.30;2.35;;;;;;;;;;4995146;28;20289;-65
2023/06/27 09:45:24;;;;;;;10.82;2.58;;;;;;;;;;4992783;28;20038;-64
2023/06/27 09:47:50;;;;;;;6.90;2.63;;;;;;;;;;4993994;28;20034;-63
2023/06/27 09:50:36;;;;;;;7.38;2.72;;;;;;;;;;4994021;28;20042;-64
2023/06/27 09:53:03;;;;;;;7.03;2.65;;;;;;;;;;4993920;28;20039;-65
2023/06/27 09:55:28;;;;;;;6.88;2.80;;;;;;;;;;4994771;28;20084;-63
2023/06/27 09:57:54;;;;;;;6.22;2.40;;;;;;;;;;4994533;28;20034;-68
2023/06/27 10:00:21;;;;;;;4.90;2.17;;;;;;;;;;4993959;28;20506;-64
2023/06/27 10:02:50;;;;;;;9.40;2.10;;;;;;;;;;4994804;28;20101;-65
2023/06/27 10:05:17;;;;;;;7.60;2.40;;;;;;;;;;4992723;28;20578;-64
2023/06/27 10:07:44;;;;;;;6.28;2.33;;;;;;;;;;4994373;28;20034;-65
2023/06/27 10:10:10;;;;;;;4.20;2.20;;;;;;;;;;4992911;28;20542;-63
2023/06/27 10:12:36;;;;;;;4.15;1.98;;;;;;;;;;4992604;28;20045;-64
2023/06/27 10:15:03;;;;;;;5.80;2.15;;;;;;;;;;4993013;28;20038;-63
2023/06/27 10:17:29;;;;;;;5.18;2.03;;;;;;;;;;4992968;28;20538;-67
2023/06/27 10:19:56;;;;;;;6.57;2.05;;;;;;;;;;4983575;28;20110;-69
2023/06/27 10:22:26;;;;;;;5.25;2.17;;;;;;;;;;4983028;28;20471;-62
2023/06/27 10:24:53;;;;;;;;;;;;;;;;;;4983326;28;20058;-73
2023/06/27 10:27:21;;;;;;;5.05;1.85;;;;;;;;;;4991107;28;19928;-65
2023/06/27 10:29:47;;;;;;;5.88;1.90;;;;;;;;;;4984483;28;20069;-66
2023/06/27 10:32:16;;;;;;;5.63;2.25;;;;;;;;;;4982037;28;20382;-64
2023/06/27 10:34:43;;;;;;;8.80;2.00;;;;;;;;;;4993297;28;20106;-64
2023/06/27 10:37:10;;;;;;;6.85;1.80;;;;;;;;;;5005704;28;20255;-61
2023/06/27 10:39:37;;;;;;;5.03;1.73;;;;;;;;;;4996724;28;20062;-65
2023/06/27 10:42:18;;;;;;;4.38;1.88;;;;;;;;;;4993043;28;20143;-63
2023/06/27 10:45:09;;;;;;;3.80;1.75;;;;;;;;;;4993523;28;20033;-62
2023/06/27 10:47:38;;;;;;;;;;;;;;;;;;4991473;28;20060;-63
2023/06/27 10:50:26;;;;;;;5.63;2.20;;;;;;;;;;4992469;28;20362;-63
2023/06/27 10:53:07;;;;;;;5.15;1.90;;;;;;;;;;4991949;28;20049;-64
2023/06/27 10:55:33;;;;;;;4.88;1.90;;;;;;;;;;4990579;28;20034;-68
2023/06/27 10:58:13;;;;;;;5.80;1.95;;;;;;;;;;4990678;28;20053;-65
2023/06/27 11:00:44;;;;;;;6.60;2.05;;;;;;;;;;4992993;28;20045;-65
2023/06/27 11:03:10;;;;;;;6.13;1.92;;;;;;;;;;4992383;28;20035;-65
2023/06/27 11:05:44;;;;;;;5.82;1.80;;;;;;;;;;4991777;28;20034;-64
2023/06/27 11:08:13;;;;;;;4.15;2.10;;;;;;;;;;4992465;28;20041;-64
2023/06/27 11:10:49;;;;;;;5.03;1.85;;;;;;;;;;4991458;28;20037;-64
2023/06/27 11:13:22;;;;;;;4.40;1.73;;;;;;;;;;4992316;28;20087;-63
2023/06/27 11:15:49;;;;;;;3.45;1.80;;;;;;;;;;4989457;28;20027;-63
2023/06/27 11:18:15;;;;;;;4.80;1.73;;;;;;;;;;4992613;28;20054;-62
2023/06/27 11:20:42;;;;;;;8.70;2.13;;;;;;;;;;4991202;28;20104;-62
2023/06/27 11:23:08;;;;;;;4.90;1.67;;;;;;;;;;4990249;28;20041;-63
2023/06/27 11:25:44;;;;;;;4.43;1.90;;;;;;;;;;4992260;28;20117;-65
2023/06/27 11:28:15;;;;;;;4.55;1.80;;;;;;;;;;4991955;28;20030;-63
2023/06/27 11:30:41;;;;;;;7.68;2.20;;;;;;;;;;4990863;28;20048;-65
2023/06/27 11:33:07;;;;;;;6.38;2.00;;;;;;;;;;4989948;28;20105;-65
2023/06/27 11:35:37;;;;;;;7.20;2.10;;;;;;;;;;4985457;28;20030;-65
2023/06/27 11:38:06;;;;;;;7.88;2.10;;;;;;;;;;4992040;28;20042;-65
2023/06/27 11:40:31;;;;;;;7.72;2.20;;;;;;;;;;4991659;28;20125;-64
2023/06/27 11:43:05;;;;;;;6.78;2.10;;;;;;;;;;4992144;28;20427;-67
2023/06/27 11:45:33;;;;;;;5.82;1.90;;;;;;;;;;4990425;28;20495;-62
2023/06/27 11:48:02;;;;;;;5.78;2.17;;;;;;;;;;4988198;28;20471;-64
2023/06/27 11:50:29;;;;;;;7.07;2.53;;;;;;;;;;4991426;28;20122;-63
2023/06/27 11:52:58;;;;;;;5.35;2.03;;;;;;;;;;4991957;28;20054;-69
2023/06/27 11:55:23;;;;;;;4.22;2.05;;;;;;;;;;4991914;28;20030;-64
2023/06/27 11:57:54;;;;;;;6.60;2.00;;;;;;;;;;4992396;28;20096;-64
2023/06/27 12:00:25;;;;;;;7.28;2.20;;;;;;;;;;4990318;28;20054;-65
2023/06/27 12:02:52;;;;;;;6.20;1.90;;;;;;;;;;4991647;28;20042;-63
2023/06/27 12:05:20;;;;;;;5.13;2.20;;;;;;;;;;4990471;28;20053;-63
2023/06/27 12:08:03;;;;;;;4.95;1.90;;;;;;;;;;4992385;28;20046;-64
2023/06/27 12:10:31;;;;;;;3.95;1.90;;;;;;;;;;4982384;28;20058;-65
2023/06/27 12:12:56;;;;;;;5.80;2.22;;;;;;;;;;4978017;28;20057;-67
2023/06/27 12:15:22;;;;;;;7.32;2.20;;;;;;;;;;4991901;28;20069;-64
2023/06/27 12:18:00;;;;;;;7.07;2.15;;;;;;;;;;4992332;28;20031;-64
2023/06/27 12:20:39;;;;;;;4.95;1.92;;;;;;;;;;4988093;28;20042;-64
2023/06/27 12:23:05;;;;;;;6.28;2.20;;;;;;;;;;4991275;28;20464;-63
2023/06/27 12:25:30;;;;;;;4.50;2.10;;;;;;;;;;5014347;28;20057;-63
2023/06/27 12:27:55;;;;;;;4.07;2.00;;;;;;;;;;4986576;28;20045;-68
2023/06/27 12:30:21;;;;;;;6.07;2.40;;;;;;;;;;4990795;28;20481;-64
2023/06/27 12:32:46;;;;;;;7.63;2.03;;;;;;;;;;4992202;28;20034;-62
2023/06/27 12:35:17;;;;;;;8.50;2.13;;;;;;;;;;4990978;28;20026;-64
2023/06/27 12:37:44;;;;;;;4.18;2.00;;;;;;;;;;4992290;28;20026;-62
2023/06/27 12:40:10;;;;;;;5.63;1.92;;;;;;;;;;4990661;28;20098;-62
2023/06/27 12:42:35;;;;;;;5.80;2.20;;;;;;;;;;4991459;28;20137;-63
2023/06/27 12:45:00;;;;;;;7.25;2.30;;;;;;;;;;4990743;28;20085;-63
2023/06/27 12:47:26;;;;;;;4.95;1.88;;;;;;;;;;4992081;28;20026;-66
2023/06/27 12:49:51;;;;;;;5.72;2.30;;;;;;;;;;4991838;28;20026;-63
2023/06/27 12:52:16;;;;;;;5.07;2.20;;;;;;;;;;4991148;28;20038;-64
2023/06/27 12:54:42;;;;;;;4.93;2.10;;;;;;;;;;4991411;28;20038;-64
2023/06/27 12:57:07;;;;;;;8.63;2.17;;;;;;;;;;4988714;28;20030;-63
2023/06/27 12:59:32;;;;;;;4.82;1.90;;;;;;;;;;4995294;28;20472;-64
2023/06/27 13:02:00;;;;;;;6.65;1.90;;;;;;;;;;4994457;28;20034;-66
2023/06/27 13:04:26;;;;;;;4.82;1.58;;;;;;;;;;4994285;28;20478;-64
2023/06/27 13:06:52;;;;;;;5.65;1.70;;;;;;;;;;4995268;28;20038;-64
2023/06/27 13:09:17;;;;;;;4.57;1.65;;;;;;;;;;4994688;28;20545;-62
2023/06/27 13:11:43;;;;;;;4.28;1.63;;;;;;;;;;4978798;28;20054;-67
2023/06/27 13:14:09;;;;;;;4.18;1.60;;;;;;;;;;4975001;28;20034;-63
2023/06/27 13:16:34;;;;;;;3.03;1.50;;;;;;;;;;4990850;28;20023;-63
2023/06/27 13:19:05;;;;;;;5.03;1.80;;;;;;;;;;4993718;28;20581;-67
2023/06/27 13:21:30;;;;;;;3.75;1.50;;;;;;;;;;4989704;28;20054;-64
2023/06/27 13:23:56;;;;;;;2.75;1.50;;;;;;;;;;4976431;28;20491;-66
2023/06/27 13:26:22;;;;;;;3.20;1.50;;;;;;;;;;4994401;28;20042;-61
2023/06/27 13:28:47;;;;;;;3.05;1.48;;;;;;;;;;4994489;28;20026;-62
2023/06/27 13:31:13;;;;;;;3.05;1.48;;;;;;;;;;4991366;28;20039;-63
2023/06/27 13:33:38;;;;;;;2.10;1.17;;;;;;;;;;4994479;28;20027;-64
2023/06/27 13:36:05;;;;;;;3.67;1.60;;;;;;;;;;4993314;28;20527;-62
2023/06/27 13:38:31;;;;;;;2.97;1.63;;;;;;;;;;4994480;28;20088;-63
2023/06/27 13:40:57;;;;;;;4.55;1.52;;;;;;;;;;4975586;28;20062;-63
2023/06/27 13:43:22;;;;;;;2.97;1.40;;;;;;;;;;4987183;28;20037;-62
2023/06/27 13:45:53;;;;;;;2.60;1.20;;;;;;;;;;4994740;28;20034;-64
2023/06/27 13:48:22;;;;;;;4.10;1.48;;;;;;;;;;4994124;28;20455;-64
2023/06/27 13:50:49;;;;;;;3.38;1.35;;;;;;;;;;4989816;28;20039;-64
2023/06/27 13:53:14;;;;;;;4.35;1.40;;;;;;;;;;4991546;28;20532;-63
2023/06/27 13:55:40;;;;;;;4.05;1.58;;;;;;;;;;4992649;28;20036;-60
2023/06/27 13:58:05;;;;;;;3.55;1.38;;;;;;;;;;4993786;28;20030;-60
2023/06/27 14:00:31;;;;;;;4.50;1.50;;;;;;;;;;4994685;28;20042;-61
2023/06/27 14:02:56;;;;;;;3.92;1.30;;;;;;;;;;4994193;28;20034;-61
2023/06/27 14:05:23;;;;;;;2.78;1.20;;;;;;;;;;4993484;28;20033;-61
2023/06/27 14:07:49;;;;;;;3.10;1.50;;;;;;;;;;4994257;28;20069;-60
2023/06/27 14:10:14;;;;;;;2.85;1.40;;;;;;;;;;4992904;28;20061;-61
2023/06/27 14:12:40;;;;;;;5.50;1.40;;;;;;;;;;4993124;28;20105;-60
2023/06/27 14:15:07;;;;;;;3.65;1.40;;;;;;;;;;4992498;28;20085;-60
2023/06/27 14:17:32;;;;;;;4.53;1.30;;;;;;;;;;4993142;28;20062;-60
2023/06/27 14:19:58;;;;;;;4.00;1.25;;;;;;;;;;4992628;28;20065;-60
2023/06/27 14:22:24;;;;;;;3.85;1.48;;;;;;;;;;4993826;28;20027;-60
2023/06/27 14:24:49;;;;;;;4.35;1.50;;;;;;;;;;4994055;28;20385;-60
2023/06/27 14:27:15;;;;;;;2.60;1.40;;;;;;;;;;4993521;28;20374;-60
2023/06/27 14:29:40;;;;;;;3.10;1.38;;;;;;;;;;4994155;28;20027;-60
2023/06/27 14:32:06;;;;;;;3.83;1.50;;;;;;;;;;4993200;28;20418;-60
2023/06/27 14:34:32;;;;;;;2.72;1.30;;;;;;;;;;4993571;28;20046;-60
2023/06/27 14:36:57;;;;;;;3.38;1.40;;;;;;;;;;4993917;28;20026;-60
2023/06/27 14:39:23;;;;;;;4.15;1.23;;;;;;;;;;4993399;28;20045;-60